sensor_id;sensor_type;location;lat;lon;timestamp;temperature;humidity
72772;SHT30;60894;42.544;1.516;2023-06-14T00:01:20;13.44;83.62
72772;SHT30;60894;42.544;1.516;2023-06-14T00:03:47;13.45;83.79
72772;SHT30;60894;42.544;1.516;2023-06-14T00:06:14;13.39;84.37
72772;SHT30;60894;42.544;1.516;2023-06-14T00:08:41;13.34;84.31
72772;SHT30;60894;42.544;1.516;2023-06-14T00:11:10;13.44;83.69
72772;SHT30;60894;42.544;1.516;2023-06-14T00:13:36;13.32;84.31
72772;SHT30;60894;42.544;1.516;2023-06-14T00:16:04;13.34;84.17
72772;SHT30;60894;42.544;1.516;2023-06-14T00:18:31;13.32;84.36
72772;SHT30;60894;42.544;1.516;2023-06-14T00:20:58;13.28;84.29
72772;SHT30;60894;42.544;1.516;2023-06-14T00:23:25;13.31;84.16
72772;SHT30;60894;42.544;1.516;2023-06-14T00:25:52;13.25;84.47
72772;SHT30;60894;42.544;1.516;2023-06-14T00:28:20;13.24;84.51
72772;SHT30;60894;42.544;1.516;2023-06-14T00:30:47;13.46;84.19
72772;SHT30;60894;42.544;1.516;2023-06-14T00:33:14;13.34;83.89
72772;SHT30;60894;42.544;1.516;2023-06-14T00:35:41;13.32;84.05
72772;SHT30;60894;42.544;1.516;2023-06-14T00:38:08;13.34;84.17
72772;SHT30;60894;42.544;1.516;2023-06-14T00:40:35;13.27;84.11
72772;SHT30;60894;42.544;1.516;2023-06-14T00:43:02;13.35;83.53
72772;SHT30;60894;42.544;1.516;2023-06-14T00:45:30;13.28;83.94
72772;SHT30;60894;42.544;1.516;2023-06-14T00:48:01;13.29;84.64
72772;SHT30;60894;42.544;1.516;2023-06-14T00:50:30;13.39;84.37
72772;SHT30;60894;42.544;1.516;2023-06-14T00:52:57;13.42;83.74
72772;SHT30;60894;42.544;1.516;2023-06-14T00:55:25;13.38;83.59
72772;SHT30;60894;42.544;1.516;2023-06-14T00:57:52;13.39;84.26
72772;SHT30;60894;42.544;1.516;2023-06-14T01:00:19;13.41;84.82
72772;SHT30;60894;42.544;1.516;2023-06-14T01:02:47;13.39;84.48
72772;SHT30;60894;42.544;1.516;2023-06-14T01:05:16;13.38;83.93
72772;SHT30;60894;42.544;1.516;2023-06-14T01:07:57;13.28;83.83
72772;SHT30;60894;42.544;1.516;2023-06-14T01:10:34;13.32;84.21
72772;SHT30;60894;42.544;1.516;2023-06-14T01:13:07;13.29;84.62
72772;SHT30;60894;42.544;1.516;2023-06-14T01:15:36;13.29;84.89
72772;SHT30;60894;42.544;1.516;2023-06-14T01:18:05;13.28;84.89
72772;SHT30;60894;42.544;1.516;2023-06-14T01:20:33;13.28;85.12
72772;SHT30;60894;42.544;1.516;2023-06-14T01:23:04;13.29;84.77
72772;SHT30;60894;42.544;1.516;2023-06-14T01:25:31;13.27;85.24
72772;SHT30;60894;42.544;1.516;2023-06-14T01:28:00;13.29;84.43
72772;SHT30;60894;42.544;1.516;2023-06-14T01:30:29;13.35;83.79
72772;SHT30;60894;42.544;1.516;2023-06-14T01:32:59;13.25;83.74
72772;SHT30;60894;42.544;1.516;2023-06-14T01:35:26;13.25;83.62
72772;SHT30;60894;42.544;1.516;2023-06-14T01:37:53;13.22;83.95
72772;SHT30;60894;42.544;1.516;2023-06-14T01:40:22;13.18;83.91
72772;SHT30;60894;42.544;1.516;2023-06-14T01:42:51;13.21;83.66
72772;SHT30;60894;42.544;1.516;2023-06-14T01:45:19;13.19;84.15
72772;SHT30;60894;42.544;1.516;2023-06-14T01:47:47;13.21;83.91
72772;SHT30;60894;42.544;1.516;2023-06-14T01:50:14;13.18;84.75
72772;SHT30;60894;42.544;1.516;2023-06-14T01:52:41;13.17;84.68
72772;SHT30;60894;42.544;1.516;2023-06-14T01:55:08;13.10;85.23
72772;SHT30;60894;42.544;1.516;2023-06-14T01:57:37;13.12;84.56
72772;SHT30;60894;42.544;1.516;2023-06-14T02:00:04;13.11;84.83
72772;SHT30;60894;42.544;1.516;2023-06-14T02:02:36;13.08;85.22
72772;SHT30;60894;42.544;1.516;2023-06-14T02:05:03;13.12;85.81
72772;SHT30;60894;42.544;1.516;2023-06-14T02:07:30;13.11;86.04
72772;SHT30;60894;42.544;1.516;2023-06-14T02:09:57;13.10;86.00
72772;SHT30;60894;42.544;1.516;2023-06-14T02:12:24;13.10;86.02
72772;SHT30;60894;42.544;1.516;2023-06-14T02:14:52;13.10;86.07
72772;SHT30;60894;42.544;1.516;2023-06-14T02:17:19;13.10;86.14
72772;SHT30;60894;42.544;1.516;2023-06-14T02:19:46;13.11;85.85
72772;SHT30;60894;42.544;1.516;2023-06-14T02:22:14;13.10;85.98
72772;SHT30;60894;42.544;1.516;2023-06-14T02:24:41;13.08;85.13
72772;SHT30;60894;42.544;1.516;2023-06-14T02:27:08;13.18;85.14
72772;SHT30;60894;42.544;1.516;2023-06-14T02:29:35;13.04;85.07
72772;SHT30;60894;42.544;1.516;2023-06-14T02:32:04;13.07;84.91
72772;SHT30;60894;42.544;1.516;2023-06-14T02:34:32;13.08;84.68
72772;SHT30;60894;42.544;1.516;2023-06-14T02:36:59;13.03;85.27
72772;SHT30;60894;42.544;1.516;2023-06-14T02:39:28;13.00;85.40
72772;SHT30;60894;42.544;1.516;2023-06-14T02:41:55;13.05;85.42
72772;SHT30;60894;42.544;1.516;2023-06-14T02:44:24;13.03;85.59
72772;SHT30;60894;42.544;1.516;2023-06-14T02:46:52;13.07;85.71
72772;SHT30;60894;42.544;1.516;2023-06-14T02:49:21;13.01;85.83
72772;SHT30;60894;42.544;1.516;2023-06-14T02:51:48;13.01;86.38
72772;SHT30;60894;42.544;1.516;2023-06-14T02:54:15;12.95;85.82
72772;SHT30;60894;42.544;1.516;2023-06-14T02:56:42;12.91;85.75
72772;SHT30;60894;42.544;1.516;2023-06-14T02:59:09;12.98;85.64
72772;SHT30;60894;42.544;1.516;2023-06-14T03:01:36;12.90;86.18
72772;SHT30;60894;42.544;1.516;2023-06-14T03:04:06;12.90;86.53
72772;SHT30;60894;42.544;1.516;2023-06-14T03:06:35;12.95;86.30
72772;SHT30;60894;42.544;1.516;2023-06-14T03:09:02;13.00;86.35
72772;SHT30;60894;42.544;1.516;2023-06-14T03:11:31;13.00;86.03
72772;SHT30;60894;42.544;1.516;2023-06-14T03:13:58;13.00;86.41
72772;SHT30;60894;42.544;1.516;2023-06-14T03:16:26;12.94;86.37
72772;SHT30;60894;42.544;1.516;2023-06-14T03:18:54;13.00;86.18
72772;SHT30;60894;42.544;1.516;2023-06-14T03:21:21;12.97;85.95
72772;SHT30;60894;42.544;1.516;2023-06-14T03:23:49;12.91;86.28
72772;SHT30;60894;42.544;1.516;2023-06-14T03:26:16;12.93;86.38
72772;SHT30;60894;42.544;1.516;2023-06-14T03:28:44;13.03;86.41
72772;SHT30;60894;42.544;1.516;2023-06-14T03:31:11;13.05;86.16
72772;SHT30;60894;42.544;1.516;2023-06-14T03:33:38;13.01;85.43
72772;SHT30;60894;42.544;1.516;2023-06-14T03:36:06;12.94;85.52
72772;SHT30;60894;42.544;1.516;2023-06-14T03:38:33;13.03;85.52
72772;SHT30;60894;42.544;1.516;2023-06-14T03:41:02;13.05;85.15
72772;SHT30;60894;42.544;1.516;2023-06-14T03:43:29;12.97;85.30
72772;SHT30;60894;42.544;1.516;2023-06-14T03:45:56;12.95;85.22
72772;SHT30;60894;42.544;1.516;2023-06-14T03:48:23;12.98;85.89
72772;SHT30;60894;42.544;1.516;2023-06-14T03:50:51;12.98;85.85
72772;SHT30;60894;42.544;1.516;2023-06-14T03:53:18;13.05;85.89
72772;SHT30;60894;42.544;1.516;2023-06-14T03:55:46;13.05;86.10
72772;SHT30;60894;42.544;1.516;2023-06-14T03:58:15;13.08;86.05
72772;SHT30;60894;42.544;1.516;2023-06-14T04:00:42;13.12;85.70
72772;SHT30;60894;42.544;1.516;2023-06-14T04:03:10;13.04;85.66
72772;SHT30;60894;42.544;1.516;2023-06-14T04:05:38;13.08;85.27
72772;SHT30;60894;42.544;1.516;2023-06-14T04:08:07;12.98;85.68
72772;SHT30;60894;42.544;1.516;2023-06-14T04:10:34;12.93;85.95
72772;SHT30;60894;42.544;1.516;2023-06-14T04:13:01;13.00;86.39
72772;SHT30;60894;42.544;1.516;2023-06-14T04:15:30;12.94;86.17
72772;SHT30;60894;42.544;1.516;2023-06-14T04:17:57;12.95;86.09
72772;SHT30;60894;42.544;1.516;2023-06-14T04:20:23;12.95;85.93
72772;SHT30;60894;42.544;1.516;2023-06-14T04:22:51;12.97;86.30
72772;SHT30;60894;42.544;1.516;2023-06-14T04:25:18;13.05;86.04
72772;SHT30;60894;42.544;1.516;2023-06-14T04:27:45;12.97;86.27
72772;SHT30;60894;42.544;1.516;2023-06-14T04:30:12;12.97;86.95
72772;SHT30;60894;42.544;1.516;2023-06-14T04:32:41;12.90;87.50
72772;SHT30;60894;42.544;1.516;2023-06-14T04:35:09;12.91;86.89
72772;SHT30;60894;42.544;1.516;2023-06-14T04:37:36;12.86;86.93
72772;SHT30;60894;42.544;1.516;2023-06-14T04:40:10;12.87;87.29
72772;SHT30;60894;42.544;1.516;2023-06-14T04:42:37;12.93;86.84
72772;SHT30;60894;42.544;1.516;2023-06-14T04:45:07;12.87;87.04
72772;SHT30;60894;42.544;1.516;2023-06-14T04:47:34;12.94;87.48
72772;SHT30;60894;42.544;1.516;2023-06-14T04:50:05;13.00;87.17
72772;SHT30;60894;42.544;1.516;2023-06-14T04:52:32;13.03;86.98
72772;SHT30;60894;42.544;1.516;2023-06-14T04:55:01;12.95;86.89
72772;SHT30;60894;42.544;1.516;2023-06-14T04:57:28;13.10;87.05
72772;SHT30;60894;42.544;1.516;2023-06-14T04:59:56;13.22;86.71
72772;SHT30;60894;42.544;1.516;2023-06-14T05:02:23;13.17;86.99
72772;SHT30;60894;42.544;1.516;2023-06-14T05:04:51;13.19;86.54
72772;SHT30;60894;42.544;1.516;2023-06-14T05:07:20;13.14;86.36
72772;SHT30;60894;42.544;1.516;2023-06-14T05:09:49;13.11;87.40
72772;SHT30;60894;42.544;1.516;2023-06-14T05:12:16;13.14;87.00
72772;SHT30;60894;42.544;1.516;2023-06-14T05:14:44;13.08;86.83
72772;SHT30;60894;42.544;1.516;2023-06-14T05:17:11;13.10;87.29
72772;SHT30;60894;42.544;1.516;2023-06-14T05:19:38;13.19;87.82
72772;SHT30;60894;42.544;1.516;2023-06-14T05:22:05;13.15;87.57
72772;SHT30;60894;42.544;1.516;2023-06-14T05:24:34;13.08;87.43
72772;SHT30;60894;42.544;1.516;2023-06-14T05:27:01;13.10;87.35
72772;SHT30;60894;42.544;1.516;2023-06-14T05:29:28;13.11;87.00
72772;SHT30;60894;42.544;1.516;2023-06-14T05:31:54;13.05;87.14
72772;SHT30;60894;42.544;1.516;2023-06-14T05:34:21;13.18;87.05
72772;SHT30;60894;42.544;1.516;2023-06-14T05:36:48;13.22;87.63
72772;SHT30;60894;42.544;1.516;2023-06-14T05:39:15;13.22;87.71
72772;SHT30;60894;42.544;1.516;2023-06-14T05:41:43;13.22;87.84
72772;SHT30;60894;42.544;1.516;2023-06-14T05:44:10;13.29;87.29
72772;SHT30;60894;42.544;1.516;2023-06-14T05:46:37;13.32;87.44
72772;SHT30;60894;42.544;1.516;2023-06-14T05:49:05;13.34;87.01
72772;SHT30;60894;42.544;1.516;2023-06-14T05:51:32;13.28;87.34
72772;SHT30;60894;42.544;1.516;2023-06-14T05:53:59;13.36;86.07
72772;SHT30;60894;42.544;1.516;2023-06-14T05:56:26;13.31;86.54
72772;SHT30;60894;42.544;1.516;2023-06-14T05:58:54;13.15;86.51
72772;SHT30;60894;42.544;1.516;2023-06-14T06:01:21;13.07;86.11
72772;SHT30;60894;42.544;1.516;2023-06-14T06:03:48;12.97;86.30
72772;SHT30;60894;42.544;1.516;2023-06-14T06:06:15;12.91;87.13
72772;SHT30;60894;42.544;1.516;2023-06-14T06:08:42;12.88;86.78
72772;SHT30;60894;42.544;1.516;2023-06-14T06:11:10;13.11;87.92
72772;SHT30;60894;42.544;1.516;2023-06-14T06:13:37;13.17;87.86
72772;SHT30;60894;42.544;1.516;2023-06-14T06:16:06;13.22;87.50
72772;SHT30;60894;42.544;1.516;2023-06-14T06:18:33;13.21;87.38
72772;SHT30;60894;42.544;1.516;2023-06-14T06:21:00;13.21;86.74
72772;SHT30;60894;42.544;1.516;2023-06-14T06:23:28;13.22;86.24
72772;SHT30;60894;42.544;1.516;2023-06-14T06:25:56;13.39;87.95
72772;SHT30;60894;42.544;1.516;2023-06-14T06:28:23;13.48;88.22
72772;SHT30;60894;42.544;1.516;2023-06-14T06:30:50;13.76;87.62
72772;SHT30;60894;42.544;1.516;2023-06-14T06:33:18;13.80;85.81
72772;SHT30;60894;42.544;1.516;2023-06-14T06:35:45;13.75;86.00
72772;SHT30;60894;42.544;1.516;2023-06-14T06:38:12;13.56;85.92
72772;SHT30;60894;42.544;1.516;2023-06-14T06:40:39;13.58;86.58
72772;SHT30;60894;42.544;1.516;2023-06-14T06:43:06;13.58;86.40
72772;SHT30;60894;42.544;1.516;2023-06-14T06:45:33;13.56;86.48
72772;SHT30;60894;42.544;1.516;2023-06-14T06:48:00;13.62;87.51
72772;SHT30;60894;42.544;1.516;2023-06-14T06:50:28;13.61;86.87
72772;SHT30;60894;42.544;1.516;2023-06-14T06:52:56;13.56;85.97
72772;SHT30;60894;42.544;1.516;2023-06-14T06:55:23;13.52;85.43
72772;SHT30;60894;42.544;1.516;2023-06-14T06:57:50;13.58;86.88
72772;SHT30;60894;42.544;1.516;2023-06-14T07:00:18;13.65;86.47
72772;SHT30;60894;42.544;1.516;2023-06-14T07:02:45;13.59;84.95
72772;SHT30;60894;42.544;1.516;2023-06-14T07:05:12;13.63;85.71
72772;SHT30;60894;42.544;1.516;2023-06-14T07:07:41;13.62;85.25
72772;SHT30;60894;42.544;1.516;2023-06-14T07:10:08;13.65;87.39
72772;SHT30;60894;42.544;1.516;2023-06-14T07:12:36;13.63;88.37
72772;SHT30;60894;42.544;1.516;2023-06-14T07:15:06;13.66;87.44
72772;SHT30;60894;42.544;1.516;2023-06-14T07:17:34;13.70;87.71
72772;SHT30;60894;42.544;1.516;2023-06-14T07:20:01;13.73;87.71
72772;SHT30;60894;42.544;1.516;2023-06-14T07:22:38;13.72;88.42
72772;SHT30;60894;42.544;1.516;2023-06-14T07:25:08;13.72;87.97
72772;SHT30;60894;42.544;1.516;2023-06-14T07:27:37;13.70;87.59
72772;SHT30;60894;42.544;1.516;2023-06-14T07:30:06;13.76;88.23
72772;SHT30;60894;42.544;1.516;2023-06-14T07:32:34;13.79;87.98
72772;SHT30;60894;42.544;1.516;2023-06-14T07:35:00;13.72;87.05
72772;SHT30;60894;42.544;1.516;2023-06-14T07:37:28;13.69;86.80
72772;SHT30;60894;42.544;1.516;2023-06-14T07:39:56;13.72;87.90
72772;SHT30;60894;42.544;1.516;2023-06-14T07:42:24;13.82;88.09
72772;SHT30;60894;42.544;1.516;2023-06-14T07:44:51;13.85;88.86
72772;SHT30;60894;42.544;1.516;2023-06-14T07:47:19;13.87;88.65
72772;SHT30;60894;42.544;1.516;2023-06-14T07:49:46;13.79;88.57
72772;SHT30;60894;42.544;1.516;2023-06-14T07:52:13;13.86;88.71
72772;SHT30;60894;42.544;1.516;2023-06-14T07:54:40;13.86;87.96
72772;SHT30;60894;42.544;1.516;2023-06-14T07:57:07;13.93;86.88
72772;SHT30;60894;42.544;1.516;2023-06-14T07:59:35;13.86;86.14
72772;SHT30;60894;42.544;1.516;2023-06-14T08:02:02;13.79;86.95
72772;SHT30;60894;42.544;1.516;2023-06-14T08:04:29;13.83;88.42
72772;SHT30;60894;42.544;1.516;2023-06-14T08:06:56;13.93;88.06
72772;SHT30;60894;42.544;1.516;2023-06-14T08:09:23;14.02;87.05
72772;SHT30;60894;42.544;1.516;2023-06-14T08:11:51;14.13;87.52
72772;SHT30;60894;42.544;1.516;2023-06-14T08:14:18;14.18;88.00
72772;SHT30;60894;42.544;1.516;2023-06-14T08:16:46;14.23;88.47
72772;SHT30;60894;42.544;1.516;2023-06-14T08:19:13;14.28;88.39
72772;SHT30;60894;42.544;1.516;2023-06-14T08:21:42;14.27;87.87
72772;SHT30;60894;42.544;1.516;2023-06-14T08:24:11;14.28;87.92
72772;SHT30;60894;42.544;1.516;2023-06-14T08:26:38;14.27;87.58
72772;SHT30;60894;42.544;1.516;2023-06-14T08:29:05;14.36;87.72
72772;SHT30;60894;42.544;1.516;2023-06-14T08:31:33;14.41;87.47
72772;SHT30;60894;42.544;1.516;2023-06-14T08:34:02;14.24;86.72
72772;SHT30;60894;42.544;1.516;2023-06-14T08:36:29;14.09;86.66
72772;SHT30;60894;42.544;1.516;2023-06-14T08:38:55;13.99;86.66
72772;SHT30;60894;42.544;1.516;2023-06-14T08:41:22;13.97;86.74
72772;SHT30;60894;42.544;1.516;2023-06-14T08:43:50;14.12;88.12
72772;SHT30;60894;42.544;1.516;2023-06-14T08:46:17;14.23;87.53
72772;SHT30;60894;42.544;1.516;2023-06-14T08:48:46;14.23;88.42
72772;SHT30;60894;42.544;1.516;2023-06-14T08:51:18;14.24;88.85
72772;SHT30;60894;42.544;1.516;2023-06-14T08:53:52;14.12;87.39
72772;SHT30;60894;42.544;1.516;2023-06-14T08:56:20;14.03;86.97
72772;SHT30;60894;42.544;1.516;2023-06-14T08:58:47;13.99;87.02
72772;SHT30;60894;42.544;1.516;2023-06-14T09:01:15;13.99;87.08
72772;SHT30;60894;42.544;1.516;2023-06-14T09:03:43;14.02;87.29
72772;SHT30;60894;42.544;1.516;2023-06-14T09:06:10;14.20;88.63
72772;SHT30;60894;42.544;1.516;2023-06-14T09:08:42;14.30;89.03
72772;SHT30;60894;42.544;1.516;2023-06-14T09:11:11;14.33;89.02
72772;SHT30;60894;42.544;1.516;2023-06-14T09:13:38;14.41;88.19
72772;SHT30;60894;42.544;1.516;2023-06-14T09:16:06;14.45;87.68
72772;SHT30;60894;42.544;1.516;2023-06-14T09:18:36;14.42;88.21
72772;SHT30;60894;42.544;1.516;2023-06-14T09:21:05;14.58;88.53
72772;SHT30;60894;42.544;1.516;2023-06-14T09:23:36;14.51;88.30
72772;SHT30;60894;42.544;1.516;2023-06-14T09:26:08;14.49;88.19
72772;SHT30;60894;42.544;1.516;2023-06-14T09:28:36;14.57;88.54
72772;SHT30;60894;42.544;1.516;2023-06-14T09:31:03;14.40;88.07
72772;SHT30;60894;42.544;1.516;2023-06-14T09:33:31;14.44;88.66
72772;SHT30;60894;42.544;1.516;2023-06-14T09:35:58;14.52;89.19
72772;SHT30;60894;42.544;1.516;2023-06-14T09:38:25;14.57;89.41
72772;SHT30;60894;42.544;1.516;2023-06-14T09:40:56;14.67;89.12
72772;SHT30;60894;42.544;1.516;2023-06-14T09:43:24;14.77;88.20
72772;SHT30;60894;42.544;1.516;2023-06-14T09:45:54;14.69;88.00
72772;SHT30;60894;42.544;1.516;2023-06-14T09:48:21;14.74;86.32
72772;SHT30;60894;42.544;1.516;2023-06-14T09:50:50;14.75;85.58
72772;SHT30;60894;42.544;1.516;2023-06-14T09:53:21;14.77;85.81
72772;SHT30;60894;42.544;1.516;2023-06-14T09:55:49;14.86;86.10
72772;SHT30;60894;42.544;1.516;2023-06-14T09:58:16;14.92;85.55
72772;SHT30;60894;42.544;1.516;2023-06-14T10:00:47;14.84;84.67
72772;SHT30;60894;42.544;1.516;2023-06-14T10:03:24;14.77;85.67
72772;SHT30;60894;42.544;1.516;2023-06-14T10:05:52;14.84;85.82
72772;SHT30;60894;42.544;1.516;2023-06-14T10:08:23;14.95;85.82
72772;SHT30;60894;42.544;1.516;2023-06-14T10:10:51;15.08;84.96
72772;SHT30;60894;42.544;1.516;2023-06-14T10:13:18;15.25;84.82
72772;SHT30;60894;42.544;1.516;2023-06-14T10:15:54;15.33;84.72
72772;SHT30;60894;42.544;1.516;2023-06-14T10:18:31;15.54;84.14
72772;SHT30;60894;42.544;1.516;2023-06-14T10:21:04;15.70;83.87
72772;SHT30;60894;42.544;1.516;2023-06-14T10:23:37;15.97;83.59
72772;SHT30;60894;42.544;1.516;2023-06-14T10:26:06;16.15;82.91
72772;SHT30;60894;42.544;1.516;2023-06-14T10:28:37;16.12;81.96
72772;SHT30;60894;42.544;1.516;2023-06-14T10:31:06;16.44;80.71
72772;SHT30;60894;42.544;1.516;2023-06-14T10:33:34;16.48;81.37
72772;SHT30;60894;42.544;1.516;2023-06-14T10:36:24;16.75;78.72
72772;SHT30;60894;42.544;1.516;2023-06-14T10:39:01;16.87;80.07
72772;SHT30;60894;42.544;1.516;2023-06-14T10:41:29;16.83;78.38
72772;SHT30;60894;42.544;1.516;2023-06-14T10:46:54;17.32;76.79
72772;SHT30;60894;42.544;1.516;2023-06-14T10:49:38;17.38;75.74
72772;SHT30;60894;42.544;1.516;2023-06-14T10:52:11;17.47;72.98
72772;SHT30;60894;42.544;1.516;2023-06-14T10:55:03;17.55;73.79
72772;SHT30;60894;42.544;1.516;2023-06-14T10:57:32;17.55;73.81
72772;SHT30;60894;42.544;1.516;2023-06-14T10:59:59;17.67;73.89
72772;SHT30;60894;42.544;1.516;2023-06-14T11:02:52;17.77;75.80
72772;SHT30;60894;42.544;1.516;2023-06-14T11:05:24;17.81;76.47
72772;SHT30;60894;42.544;1.516;2023-06-14T11:08:07;17.86;74.45
72772;SHT30;60894;42.544;1.516;2023-06-14T11:10:41;17.88;74.28
72772;SHT30;60894;42.544;1.516;2023-06-14T11:13:11;17.92;73.56
72772;SHT30;60894;42.544;1.516;2023-06-14T11:15:38;17.93;73.69
72772;SHT30;60894;42.544;1.516;2023-06-14T11:18:12;17.99;75.25
72772;SHT30;60894;42.544;1.516;2023-06-14T11:20:40;18.03;76.18
72772;SHT30;60894;42.544;1.516;2023-06-14T11:23:07;17.65;61.16
72772;SHT30;60894;42.544;1.516;2023-06-14T11:25:34;17.77;71.50
72772;SHT30;60894;42.544;1.516;2023-06-14T11:28:01;17.54;75.47
72772;SHT30;60894;42.544;1.516;2023-06-14T11:30:28;17.41;75.75
72772;SHT30;60894;42.544;1.516;2023-06-14T11:32:55;17.10;74.98
72772;SHT30;60894;42.544;1.516;2023-06-14T11:35:24;17.06;75.87
72772;SHT30;60894;42.544;1.516;2023-06-14T11:37:53;17.20;76.91
72772;SHT30;60894;42.544;1.516;2023-06-14T11:40:23;17.14;75.75
72772;SHT30;60894;42.544;1.516;2023-06-14T11:42:53;17.20;72.80
72772;SHT30;60894;42.544;1.516;2023-06-14T11:45:24;17.24;76.35
72772;SHT30;60894;42.544;1.516;2023-06-14T11:47:54;17.11;75.69
72772;SHT30;60894;42.544;1.516;2023-06-14T11:50:24;17.09;75.63
72772;SHT30;60894;42.544;1.516;2023-06-14T11:52:54;17.16;74.21
72772;SHT30;60894;42.544;1.516;2023-06-14T11:55:22;17.34;73.43
72772;SHT30;60894;42.544;1.516;2023-06-14T11:57:49;17.26;75.53
72772;SHT30;60894;42.544;1.516;2023-06-14T12:00:17;17.20;74.08
72772;SHT30;60894;42.544;1.516;2023-06-14T12:02:52;17.00;74.21
72772;SHT30;60894;42.544;1.516;2023-06-14T12:05:21;17.02;71.70
72772;SHT30;60894;42.544;1.516;2023-06-14T12:07:49;17.21;73.22
72772;SHT30;60894;42.544;1.516;2023-06-14T12:10:19;17.64;73.49
72772;SHT30;60894;42.544;1.516;2023-06-14T12:12:46;18.25;73.88
72772;SHT30;60894;42.544;1.516;2023-06-14T12:15:12;18.59;70.65
72772;SHT30;60894;42.544;1.516;2023-06-14T12:17:39;19.08;68.15
72772;SHT30;60894;42.544;1.516;2023-06-14T12:20:10;19.60;66.11
72772;SHT30;60894;42.544;1.516;2023-06-14T12:22:39;20.03;61.77
72772;SHT30;60894;42.544;1.516;2023-06-14T12:25:08;20.06;62.53
72772;SHT30;60894;42.544;1.516;2023-06-14T12:27:35;20.09;63.37
72772;SHT30;60894;42.544;1.516;2023-06-14T12:30:07;19.90;59.21
72772;SHT30;60894;42.544;1.516;2023-06-14T12:32:34;19.72;62.23
72772;SHT30;60894;42.544;1.516;2023-06-14T12:35:01;19.48;66.16
72772;SHT30;60894;42.544;1.516;2023-06-14T12:37:28;19.21;65.66
72772;SHT30;60894;42.544;1.516;2023-06-14T12:39:55;19.52;67.63
72772;SHT30;60894;42.544;1.516;2023-06-14T12:42:24;19.83;64.68
72772;SHT30;60894;42.544;1.516;2023-06-14T12:44:51;20.55;59.63
72772;SHT30;60894;42.544;1.516;2023-06-14T12:47:18;21.24;55.30
72772;SHT30;60894;42.544;1.516;2023-06-14T12:49:44;21.64;53.20
72772;SHT30;60894;42.544;1.516;2023-06-14T12:52:11;21.50;49.13
72772;SHT30;60894;42.544;1.516;2023-06-14T12:54:38;20.81;49.06
72772;SHT30;60894;42.544;1.516;2023-06-14T12:57:06;20.41;50.15
72772;SHT30;60894;42.544;1.516;2023-06-14T12:59:35;20.07;54.02
72772;SHT30;60894;42.544;1.516;2023-06-14T13:02:13;20.01;58.08
72772;SHT30;60894;42.544;1.516;2023-06-14T13:04:40;19.79;58.05
72772;SHT30;60894;42.544;1.516;2023-06-14T13:07:07;19.29;55.49
72772;SHT30;60894;42.544;1.516;2023-06-14T13:09:34;19.25;59.56
72772;SHT30;60894;42.544;1.516;2023-06-14T13:12:01;19.12;60.56
72772;SHT30;60894;42.544;1.516;2023-06-14T13:14:28;18.74;60.35
72772;SHT30;60894;42.544;1.516;2023-06-14T13:16:56;18.39;62.07
72772;SHT30;60894;42.544;1.516;2023-06-14T13:19:23;18.39;62.60
72772;SHT30;60894;42.544;1.516;2023-06-14T13:21:50;18.19;67.16
72772;SHT30;60894;42.544;1.516;2023-06-14T13:24:17;17.99;68.08
72772;SHT30;60894;42.544;1.516;2023-06-14T13:26:44;17.93;68.89
72772;SHT30;60894;42.544;1.516;2023-06-14T13:29:11;18.06;68.75
72772;SHT30;60894;42.544;1.516;2023-06-14T13:31:38;18.09;69.06
72772;SHT30;60894;42.544;1.516;2023-06-14T13:34:07;18.14;68.37
72772;SHT30;60894;42.544;1.516;2023-06-14T13:36:34;18.09;68.80
72772;SHT30;60894;42.544;1.516;2023-06-14T13:39:01;18.33;69.10
72772;SHT30;60894;42.544;1.516;2023-06-14T13:41:28;18.63;68.40
72772;SHT30;60894;42.544;1.516;2023-06-14T13:43:58;18.67;65.76
72772;SHT30;60894;42.544;1.516;2023-06-14T13:46:25;18.57;59.46
72772;SHT30;60894;42.544;1.516;2023-06-14T13:48:52;18.72;58.65
72772;SHT30;60894;42.544;1.516;2023-06-14T13:51:21;19.02;59.39
72772;SHT30;60894;42.544;1.516;2023-06-14T13:53:48;19.00;60.56
72772;SHT30;60894;42.544;1.516;2023-06-14T13:56:16;19.16;63.66
72772;SHT30;60894;42.544;1.516;2023-06-14T13:58:44;19.16;62.85
72772;SHT30;60894;42.544;1.516;2023-06-14T14:01:11;19.22;61.37
72772;SHT30;60894;42.544;1.516;2023-06-14T14:03:38;19.19;60.85
72772;SHT30;60894;42.544;1.516;2023-06-14T14:06:05;19.38;57.04
72772;SHT30;60894;42.544;1.516;2023-06-14T14:08:35;19.41;56.78
72772;SHT30;60894;42.544;1.516;2023-06-14T14:11:02;19.60;56.42
72772;SHT30;60894;42.544;1.516;2023-06-14T14:13:30;19.76;54.92
72772;SHT30;60894;42.544;1.516;2023-06-14T14:15:57;19.79;51.57
72772;SHT30;60894;42.544;1.516;2023-06-14T14:18:24;20.35;52.74
72772;SHT30;60894;42.544;1.516;2023-06-14T14:20:51;20.59;51.84
72772;SHT30;60894;42.544;1.516;2023-06-14T14:23:18;20.47;50.78
72772;SHT30;60894;42.544;1.516;2023-06-14T14:25:48;20.27;51.15
72772;SHT30;60894;42.544;1.516;2023-06-14T14:28:15;20.20;50.58
72772;SHT30;60894;42.544;1.516;2023-06-14T14:30:44;20.24;50.23
72772;SHT30;60894;42.544;1.516;2023-06-14T14:33:12;20.58;50.92
72772;SHT30;60894;42.544;1.516;2023-06-14T14:35:41;20.71;47.94
72772;SHT30;60894;42.544;1.516;2023-06-14T14:38:08;21.13;47.65
72772;SHT30;60894;42.544;1.516;2023-06-14T14:40:36;21.04;47.59
72772;SHT30;60894;42.544;1.516;2023-06-14T14:43:04;21.10;49.44
72772;SHT30;60894;42.544;1.516;2023-06-14T14:45:31;21.00;49.68
72772;SHT30;60894;42.544;1.516;2023-06-14T14:48:00;20.72;46.69
72772;SHT30;60894;42.544;1.516;2023-06-14T14:50:27;20.89;46.91
72772;SHT30;60894;42.544;1.516;2023-06-14T14:52:53;21.34;45.59
72772;SHT30;60894;42.544;1.516;2023-06-14T14:55:20;21.26;45.59
72772;SHT30;60894;42.544;1.516;2023-06-14T14:57:47;21.13;45.87
72772;SHT30;60894;42.544;1.516;2023-06-14T15:00:16;21.07;46.24
72772;SHT30;60894;42.544;1.516;2023-06-14T15:02:43;21.20;45.78
72772;SHT30;60894;42.544;1.516;2023-06-14T15:05:10;21.12;45.41
72772;SHT30;60894;42.544;1.516;2023-06-14T15:07:37;21.09;45.23
72772;SHT30;60894;42.544;1.516;2023-06-14T15:10:06;21.18;44.42
72772;SHT30;60894;42.544;1.516;2023-06-14T15:12:34;20.95;45.06
72772;SHT30;60894;42.544;1.516;2023-06-14T15:15:01;20.67;45.45
72772;SHT30;60894;42.544;1.516;2023-06-14T15:17:29;20.45;45.41
72772;SHT30;60894;42.544;1.516;2023-06-14T15:19:56;20.31;46.81
72772;SHT30;60894;42.544;1.516;2023-06-14T15:22:23;19.97;45.33
72772;SHT30;60894;42.544;1.516;2023-06-14T15:24:50;20.04;48.27
72772;SHT30;60894;42.544;1.516;2023-06-14T15:27:17;20.03;48.00
72772;SHT30;60894;42.544;1.516;2023-06-14T15:29:45;20.09;49.40
72772;SHT30;60894;42.544;1.516;2023-06-14T15:32:12;19.98;47.93
72772;SHT30;60894;42.544;1.516;2023-06-14T15:34:40;20.03;49.40
72772;SHT30;60894;42.544;1.516;2023-06-14T15:37:07;20.09;48.10
72772;SHT30;60894;42.544;1.516;2023-06-14T15:39:34;20.00;47.80